Evenwood, United Kingdom
Current Conditions -  °F | °C
As of 10:20 AM on Sunday 26 Oct 2014 (Local Time) from EGNV Reporting Station
Rain Showers Rain Showers  
Wind Chill: 54°   Ceiling: 2500
Heat Index: 54°   Visibility: 6mi
Dew Point: 50°   Wind: 16mph
Humidity: 88%   Direction: 180°S
Pressure: 29.88"   Gusts: NA
Location:  54.62°N, 1.76°W
Report Text: EGNV 260920Z 18014KT 9999 -SHRA FEW013 BKN025 12/10 Q1012
Loading
Personal Weather Stations






























Interactive Weather Map
Tropical Storm Tracking
New forecast layout! Learn more

10-Day Weather Forecast

Advertisements
Track Severe Weather on mobile